This is the latest recevied weather packets stored in our database for station/object EA4URC-13. If no packets are shown the sender has not sent any weather packets the latest 10 day(s).
| Time | Temp. | Humidity | Pressure | Rain* | Wind** | Luminosity | Snow |
|---|---|---|---|---|---|---|---|
| 1777805003 | 13.33° C | 67% | 1006.6 hPa | - | - | - | - |
| 1777804102 | 13.33° C | 68% | 1006.6 hPa | - | - | - | - |
| 1777803202 | 12.78° C | 71% | 1006.7 hPa | - | - | - | - |
| 1777802302 | 11.67° C | 73% | 1007.2 hPa | - | - | - | - |
| 1777801402 | 12.22° C | 71% | 1007.1 hPa | - | - | - | - |
| 1777800502 | 12.78° C | 70% | 1006.9 hPa | - | - | - | - |
| 1777799671 | 12.22° C | 71% | 1007.1 hPa | - | - | - | - |
| 1777799602 | 12.22° C | 71% | 1007.1 hPa | - | - | - | - |
| 1777798800 | 12.22° C | 70% | 1007.3 hPa | - | - | - | - |
| 1777798702 | 12.22° C | 70% | 1007.3 hPa | - | - | - | - |
| 1777797802 | 12.22° C | 70% | 1007.3 hPa | - | - | - | - |
| 1777796902 | 12.22° C | 70% | 1007.1 hPa | - | - | - | - |
| 1777796138 | 12.78° C | 68% | 1006.7 hPa | - | - | - | - |
| 1777795997 | 12.78° C | 68% | 1006.7 hPa | - | - | - | - |
| 1777795097 | 12.22° C | 70% | 1007.1 hPa | - | - | - | - |
| 1777794198 | 12.22° C | 70% | 1007.2 hPa | - | - | - | - |
| 1777793297 | 12.78° C | 68% | 1006.8 hPa | - | - | - | - |
| 1777792397 | 12.22° C | 69% | 1007.3 hPa | - | - | - | - |
| 1777791497 | 12.22° C | 68% | 1007.3 hPa | - | - | - | - |
| 1777790577 | 11.67° C | 69% | 1007.7 hPa | - | - | - | - |
| 1777789677 | 11.67° C | 69% | 1007.5 hPa | - | - | - | - |
| 1777788777 | 11.67° C | 69% | 1007.1 hPa | - | - | - | - |
| 1777787877 | 12.22° C | 67% | 1007 hPa | - | - | - | - |
| 1777786102 | 11.67° C | 69% | 1007.3 hPa | - | - | - | - |
| 1777785236 | 11.67° C | 69% | 1007.4 hPa | - | - | - | - |
* Rain since midnight (hover to see other rain measurements)
** Current wind speed in m/s (hover to see current wind gust speed)